| time (UTC) | temp F | wind direction | speed MPH | gust MPH | rain 1hr in | rain 24hr in | rain mn in | humidity % | barometer mb |
| 20260508003910 | 67 | 339 | 0.0 | 0.0 | 0.00 | 0.00 | 0.00 | 23 | 1015.9 |
| 20260508003407 | 67 | 337 | 0.0 | 0.0 | 0.00 | 0.00 | 0.00 | 24 | 1015.8 |
| 20260508002904 | 66 | 341 | 2.0 | 2.0 | 0.00 | 0.00 | 0.00 | 22 | 1015.9 |
| 20260508002401 | 66 | 342 | 0.0 | 0.0 | 0.00 | 0.00 | 0.00 | 22 | 1015.8 |
| 20260508001857 | 67 | 342 | 0.0 | 0.0 | 0.00 | 0.00 | 0.00 | 24 | 1015.8 |
| 20260508001353 | 67 | 310 | 0.0 | 1.0 | 0.00 | 0.00 | 0.00 | 21 | 1015.8 |
| 20260508000849 | 68 | 297 | 2.0 | 3.0 | 0.00 | 0.00 | 0.00 | 21 | 1015.9 |
| 20260508000346 | 69 | 336 | 1.0 | 1.0 | 0.00 | 0.00 | 0.00 | 20 | 1015.7 |
| 20260507235843 | 68 | 337 | 0.0 | 0.0 | 0.00 | 0.00 | 0.00 | 23 | 1015.7 |
| 20260507235340 | 69 | 335 | 1.0 | 2.0 | 0.00 | 0.00 | 0.00 | 20 | 1015.9 |
| 20260507234837 | 70 | 353 | 0.0 | 0.0 | 0.00 | 0.00 | 0.00 | 20 | 1015.7 |
| 20260507234333 | 71 | 319 | 2.0 | 2.0 | 0.00 | 0.00 | 0.00 | 21 | 1015.6 |
| 20260507233830 | 72 | 353 | 0.0 | 1.0 | 0.00 | 0.00 | 0.00 | 22 | 1015.6 |
| 20260507233328 | 71 | 311 | 0.0 | 0.0 | 0.00 | 0.00 | 0.00 | 22 | 1015.8 |
| 20260507232826 | 71 | 335 | 1.0 | 1.0 | 0.00 | 0.00 | 0.00 | 22 | 1015.7 |
| 20260507232322 | 68 | 319 | 0.0 | 0.0 | 0.00 | 0.00 | 0.00 | 24 | 1015.8 |
| 20260507231819 | 67 | 320 | 0.0 | 0.0 | 0.00 | 0.00 | 0.00 | 22 | 1015.8 |
| 20260507231316 | 68 | 320 | 1.0 | 1.0 | 0.00 | 0.00 | 0.00 | 22 | 1015.8 |
| 20260507230812 | 68 | 322 | 0.0 | 0.0 | 0.00 | 0.00 | 0.00 | 23 | 1015.9 |
| 20260507230310 | 68 | 321 | 1.0 | 2.0 | 0.00 | 0.00 | 0.00 | 21 | 1015.8 |
| 20260507225810 | 69 | 294 | 0.0 | 1.0 | 0.00 | 0.00 | 0.00 | 21 | 1015.8 |
| 20260507225306 | 69 | 295 | 0.0 | 0.0 | 0.00 | 0.00 | 0.00 | 23 | 1015.8 |
| 20260507224802 | 70 | 286 | 1.0 | 1.0 | 0.00 | 0.00 | 0.00 | 22 | 1015.9 |
| 20260507224259 | 68 | 311 | 1.0 | 1.0 | 0.00 | 0.00 | 0.00 | 23 | 1015.8 |
| 20260507223755 | 67 | 328 | 0.0 | 0.0 | 0.00 | 0.00 | 0.00 | 24 | 1015.9 |
| 20260507223251 | 68 | 318 | 0.0 | 1.0 | 0.00 | 0.00 | 0.00 | 28 | 1015.9 |
| 20260507222749 | 69 | 334 | 0.0 | 0.0 | 0.00 | 0.00 | 0.00 | 25 | 1016.2 |
| 20260507222244 | 69 | 343 | 0.0 | 0.0 | 0.00 | 0.00 | 0.00 | 23 | 1016.2 |
| 20260507221742 | 67 | 329 | 1.0 | 1.0 | 0.00 | 0.00 | 0.00 | 23 | 1016.3 |
| 20260507221238 | 67 | 304 | 0.0 | 0.0 | 0.00 | 0.00 | 0.00 | 24 | 1016.0 |
| 20260507220735 | 67 | 329 | 0.0 | 0.0 | 0.00 | 0.00 | 0.00 | 23 | 1016.3 |
| 20260507220233 | 68 | 297 | 1.0 | 2.0 | 0.00 | 0.00 | 0.00 | 22 | 1016.3 |
| 20260507215729 | 66 | 327 | 1.0 | 2.0 | 0.00 | 0.00 | 0.00 | 23 | 1016.2 |
| 20260507215227 | 66 | 314 | 1.0 | 2.0 | 0.00 | 0.00 | 0.00 | 24 | 1016.3 |
| 20260507214723 | 66 | 65 | 1.0 | 2.0 | 0.00 | 0.00 | 0.00 | 22 | 1016.3 |
| 20260507214220 | 67 | 291 | 0.0 | 0.0 | 0.00 | 0.00 | 0.00 | 24 | 1016.4 |
| 20260507213716 | 68 | 296 | 1.0 | 1.0 | 0.00 | 0.00 | 0.00 | 22 | 1016.4 |
| 20260507213213 | 68 | 309 | 0.0 | 1.0 | 0.00 | 0.00 | 0.00 | 21 | 1016.3 |
| 20260507212709 | 67 | 342 | 0.0 | 0.0 | 0.00 | 0.00 | 0.00 | 24 | 1016.4 |
| 20260507212206 | 67 | 20 | 0.0 | 0.0 | 0.00 | 0.00 | 0.00 | 22 | 1016.6 |
| 20260507211703 | 68 | 334 | 1.0 | 1.0 | 0.00 | 0.00 | 0.00 | 23 | 1016.6 |
| 20260507211158 | 68 | 285 | 2.0 | 3.0 | 0.00 | 0.00 | 0.00 | 21 | 1016.8 |
| 20260507210656 | 69 | 310 | 3.0 | 3.0 | 0.00 | 0.00 | 0.00 | 20 | 1016.8 |
| 20260507210152 | 68 | 318 | 0.0 | 0.0 | 0.00 | 0.00 | 0.00 | 22 | 1016.6 |
| 20260507205649 | 68 | 324 | 2.0 | 2.0 | 0.00 | 0.00 | 0.00 | 20 | 1016.9 |
| 20260507205146 | 68 | 324 | 0.0 | 0.0 | 0.00 | 0.00 | 0.00 | 22 | 1016.9 |
| 20260507204642 | 68 | 327 | 1.0 | 1.0 | 0.00 | 0.00 | 0.00 | 21 | 1017.1 |
| 20260507204140 | 68 | 351 | 0.0 | 1.0 | 0.00 | 0.00 | 0.00 | 21 | 1017.1 |
| 20260507203638 | 69 | 340 | 2.0 | 2.0 | 0.00 | 0.00 | 0.00 | 19 | 1017.2 |
| 20260507203135 | 68 | 315 | 1.0 | 1.0 | 0.00 | 0.00 | 0.00 | 20 | 1017.4 |
| 20260507202631 | 69 | 31 | 4.0 | 6.0 | 0.00 | 0.00 | 0.00 | 21 | 1017.4 |
| 20260507202127 | 69 | 64 | 1.0 | 2.0 | 0.00 | 0.00 | 0.00 | 23 | 1017.2 |
| 20260507201622 | 69 | 330 | 1.0 | 1.0 | 0.00 | 0.00 | 0.00 | 20 | 1017.6 |
| 20260507201119 | 68 | 342 | 1.0 | 2.0 | 0.00 | 0.00 | 0.00 | 21 | 1017.6 |
| 20260507200615 | 70 | 11 | 3.0 | 4.0 | 0.00 | 0.00 | 0.00 | 19 | 1017.6 |
| 20260507200111 | 69 | 33 | 3.0 | 3.0 | 0.00 | 0.00 | 0.00 | 20 | 1017.7 |
| 20260507195609 | 68 | 18 | 3.0 | 3.0 | 0.00 | 0.00 | 0.00 | 21 | 1017.7 |
| 20260507195106 | 69 | 346 | 2.0 | 3.0 | 0.00 | 0.00 | 0.00 | 20 | 1017.7 |
| 20260507194602 | 68 | 8 | 1.0 | 2.0 | 0.00 | 0.00 | 0.00 | 23 | 1017.8 |
| 20260507194058 | 68 | 9 | 3.0 | 6.0 | 0.00 | 0.00 | 0.00 | 21 | 1018.2 |
| 20260507193555 | 69 | 86 | 2.0 | 3.0 | 0.00 | 0.00 | 0.00 | 20 | 1017.8 |
| 20260507193052 | 69 | 346 | 6.0 | 8.0 | 0.00 | 0.00 | 0.00 | 19 | 1018.2 |
| 20260507192548 | 69 | 334 | 2.0 | 3.0 | 0.00 | 0.00 | 0.00 | 20 | 1018.3 |
| 20260507192045 | 69 | 12 | 2.0 | 3.0 | 0.00 | 0.00 | 0.00 | 20 | 1018.0 |
| 20260507191540 | 70 | 317 | 2.0 | 2.0 | 0.00 | 0.00 | 0.00 | 18 | 1018.2 |
| 20260507191038 | 69 | 341 | 1.0 | 2.0 | 0.00 | 0.00 | 0.00 | 17 | 1018.4 |
| 20260507190535 | 69 | 305 | 1.0 | 2.0 | 0.00 | 0.00 | 0.00 | 18 | 1018.2 |
| 20260507190034 | 68 | 34 | 2.0 | 2.0 | 0.00 | 0.00 | 0.00 | 19 | 1018.4 |
| 20260507185532 | 69 | 282 | 2.0 | 2.0 | 0.00 | 0.00 | 0.00 | 19 | 1018.3 |
| 20260507185028 | 69 | 331 | 1.0 | 1.0 | 0.00 | 0.00 | 0.00 | 19 | 1018.4 |
| 20260507184526 | 68 | 312 | 0.0 | 0.0 | 0.00 | 0.00 | 0.00 | 24 | 1018.4 |
| 20260507184024 | 70 | 331 | 2.0 | 3.0 | 0.00 | 0.00 | 0.00 | 16 | 1018.4 |
| 20260507183519 | 69 | 324 | 1.0 | 1.0 | 0.00 | 0.00 | 0.00 | 17 | 1018.4 |
| 20260507183017 | 69 | 355 | 1.0 | 1.0 | 0.00 | 0.00 | 0.00 | 19 | 1018.6 |
| 20260507182513 | 69 | 357 | 0.0 | 2.0 | 0.00 | 0.00 | 0.00 | 18 | 1018.3 |
| 20260507182009 | 68 | 1 | 0.0 | 1.0 | 0.00 | 0.00 | 0.00 | 17 | 1018.4 |
| 20260507181506 | 68 | 350 | 1.0 | 2.0 | 0.00 | 0.00 | 0.00 | 18 | 1018.4 |
| 20260507181002 | 68 | 28 | 2.0 | 3.0 | 0.00 | 0.00 | 0.00 | 21 | 1018.9 |
| 20260507180459 | 66 | 284 | 4.0 | 6.0 | 0.00 | 0.00 | 0.00 | 16 | 1018.9 |
| 20260507175955 | 66 | 147 | 3.0 | 4.0 | 0.00 | 0.00 | 0.00 | 19 | 1019.0 |
| 20260507175452 | 66 | 290 | 3.0 | 3.0 | 0.00 | 0.00 | 0.00 | 16 | 1019.2 |
| 20260507174949 | 67 | 34 | 1.0 | 2.0 | 0.00 | 0.00 | 0.00 | 16 | 1019.3 |
| 20260507174446 | 67 | 347 | 2.0 | 2.0 | 0.00 | 0.00 | 0.00 | 17 | 1019.2 |
| 20260507173944 | 65 | 332 | 4.0 | 4.0 | 0.00 | 0.00 | 0.00 | 16 | 1019.2 |
| 20260507173441 | 65 | 290 | 3.0 | 6.0 | 0.00 | 0.00 | 0.00 | 17 | 1019.0 |
| 20260507172938 | 66 | 318 | 2.0 | 3.0 | 0.00 | 0.00 | 0.00 | 14 | 1019.3 |
| 20260507172434 | 66 | 50 | 2.0 | 2.0 | 0.00 | 0.00 | 0.00 | 20 | 1019.4 |
| 20260507171930 | 66 | 19 | 1.0 | 1.0 | 0.00 | 0.00 | 0.00 | 20 | 1019.4 |
| 20260507171426 | 65 | 13 | 1.0 | 1.0 | 0.00 | 0.00 | 0.00 | 17 | 1019.6 |
| 20260507170924 | 64 | 357 | 2.0 | 3.0 | 0.00 | 0.00 | 0.00 | 18 | 1019.6 |
| 20260507170420 | 65 | 321 | 0.0 | 1.0 | 0.00 | 0.00 | 0.00 | 19 | 1019.5 |
| 20260507165917 | 64 | 333 | 0.0 | 1.0 | 0.00 | 0.00 | 0.00 | 17 | 1019.9 |
| 20260507165413 | 63 | 320 | 2.0 | 2.0 | 0.00 | 0.00 | 0.00 | 19 | 1019.9 |
| 20260507164909 | 64 | 279 | 4.0 | 4.0 | 0.00 | 0.00 | 0.00 | 19 | 1020.0 |
| 20260507164406 | 64 | 270 | 4.0 | 4.0 | 0.00 | 0.00 | 0.00 | 20 | 1019.6 |
| 20260507163903 | 64 | 4 | 0.0 | 1.0 | 0.00 | 0.00 | 0.00 | 22 | 1020.1 |
| 20260507163400 | 64 | 341 | 0.0 | 0.0 | 0.00 | 0.00 | 0.00 | 21 | 1020.0 |
| 20260507162857 | 62 | 351 | 1.0 | 1.0 | 0.00 | 0.00 | 0.00 | 19 | 1019.9 |
| 20260507162352 | 63 | 3 | 2.0 | 4.0 | 0.00 | 0.00 | 0.00 | 20 | 1020.1 |
| 20260507161850 | 63 | 348 | 3.0 | 4.0 | 0.00 | 0.00 | 0.00 | 20 | 1020.2 |
| 20260507161346 | 63 | 359 | 3.0 | 3.0 | 0.00 | 0.00 | 0.00 | 20 | 1020.0 |
| 20260507160843 | 63 | 17 | 2.0 | 3.0 | 0.00 | 0.00 | 0.00 | 22 | 1019.9 |
| 20260507160338 | 63 | 355 | 0.0 | 1.0 | 0.00 | 0.00 | 0.00 | 19 | 1020.1 |
| 20260507155835 | 62 | 346 | 0.0 | 0.0 | 0.00 | 0.00 | 0.00 | 21 | 1020.1 |
| 20260507155331 | 62 | 316 | 2.0 | 2.0 | 0.00 | 0.00 | 0.00 | 20 | 1020.2 |
| 20260507154828 | 62 | 343 | 1.0 | 1.0 | 0.00 | 0.00 | 0.00 | 21 | 1020.4 |
| 20260507154325 | 62 | 338 | 1.0 | 2.0 | 0.00 | 0.00 | 0.00 | 23 | 1020.2 |
| 20260507153822 | 60 | 331 | 0.0 | 0.0 | 0.00 | 0.00 | 0.00 | 24 | 1020.1 |
| 20260507153318 | 60 | 305 | 0.0 | 1.0 | 0.00 | 0.00 | 0.00 | 24 | 1020.2 |
| 20260507152815 | 59 | 297 | 2.0 | 2.0 | 0.00 | 0.00 | 0.00 | 25 | 1020.2 |
| 20260507152311 | 59 | 308 | 1.0 | 1.0 | 0.00 | 0.00 | 0.00 | 25 | 1020.4 |
| 20260507151807 | 60 | 320 | 1.0 | 1.0 | 0.00 | 0.00 | 0.00 | 25 | 1020.5 |
| 20260507151303 | 61 | 319 | 1.0 | 1.0 | 0.00 | 0.00 | 0.00 | 25 | 1020.4 |
| 20260507150801 | 60 | 22 | 0.0 | 0.0 | 0.00 | 0.00 | 0.00 | 32 | 1020.5 |
| 20260507150257 | 59 | 19 | 0.0 | 1.0 | 0.00 | 0.00 | 0.00 | 31 | 1020.4 |
| 20260507145753 | 59 | 20 | 1.0 | 2.0 | 0.00 | 0.00 | 0.00 | 28 | 1020.2 |
| 20260507145250 | 59 | 12 | 0.0 | 1.0 | 0.00 | 0.00 | 0.00 | 33 | 1020.4 |
| 20260507144747 | 59 | 311 | 0.0 | 1.0 | 0.00 | 0.00 | 0.00 | 29 | 1020.1 |
| 20260507144244 | 58 | 298 | 2.0 | 4.0 | 0.00 | 0.00 | 0.00 | 33 | 1020.4 |
| 20260507143741 | 55 | 296 | 0.0 | 0.0 | 0.00 | 0.00 | 0.00 | 36 | 1020.2 |
| 20260507143238 | 55 | 296 | 0.0 | 0.0 | 0.00 | 0.00 | 0.00 | 38 | 1020.2 |
| 20260507142734 | 55 | 301 | 2.0 | 2.0 | 0.00 | 0.00 | 0.00 | 37 | 1020.1 |
| 20260507142231 | 53 | 300 | 0.0 | 1.0 | 0.00 | 0.00 | 0.00 | 38 | 1020.2 |
| 20260507141727 | 57 | 299 | 1.0 | 2.0 | 0.00 | 0.00 | 0.00 | 34 | 1020.2 |
| 20260507141224 | 58 | 322 | 0.0 | 0.0 | 0.00 | 0.00 | 0.00 | 28 | 1020.4 |
| 20260507140720 | 55 | 322 | 0.0 | 0.0 | 0.00 | 0.00 | 0.00 | 33 | 1020.5 |
| 20260507140218 | 53 | 322 | 0.0 | 0.0 | 0.00 | 0.00 | 0.00 | 34 | 1020.4 |
| 20260507135715 | 51 | 320 | 0.0 | 0.0 | 0.00 | 0.00 | 0.00 | 40 | 1020.4 |
| 20260507135212 | 50 | 319 | 0.0 | 0.0 | 0.00 | 0.00 | 0.00 | 38 | 1020.6 |
| 20260507134708 | 49 | 296 | 1.0 | 2.0 | 0.00 | 0.00 | 0.00 | 41 | 1020.2 |
| 20260507134205 | 48 | 311 | 3.0 | 3.0 | 0.00 | 0.00 | 0.00 | 42 | 1020.5 |
| 20260507133700 | 48 | 295 | 5.0 | 6.0 | 0.00 | 0.00 | 0.00 | 43 | 1020.4 |
| 20260507133158 | 46 | 313 | 3.0 | 3.0 | 0.00 | 0.00 | 0.00 | 44 | 1020.4 |
| 20260507132655 | 46 | 311 | 2.0 | 2.0 | 0.00 | 0.00 | 0.00 | 45 | 1020.4 |
| 20260507132151 | 45 | 291 | 0.0 | 0.0 | 0.00 | 0.00 | 0.00 | 46 | 1020.4 |
| 20260507131648 | 45 | 288 | 2.0 | 2.0 | 0.00 | 0.00 | 0.00 | 46 | 1020.2 |
| 20260507131146 | 44 | 268 | 2.0 | 3.0 | 0.00 | 0.00 | 0.00 | 46 | 1020.1 |
| 20260507130642 | 44 | 287 | 0.0 | 1.0 | 0.00 | 0.00 | 0.00 | 47 | 1020.1 |
| 20260507130140 | 43 | 278 | 1.0 | 1.0 | 0.00 | 0.00 | 0.00 | 47 | 1020.4 |
| 20260507125639 | 43 | 276 | 1.0 | 1.0 | 0.00 | 0.00 | 0.00 | 47 | 1020.2 |
| 20260507125136 | 42 | 284 | 1.0 | 1.0 | 0.00 | 0.00 | 0.00 | 49 | 1020.2 |
| 20260507124632 | 42 | 279 | 4.0 | 6.0 | 0.00 | 0.00 | 0.00 | 49 | 1020.1 |
| 20260507124130 | 41 | 288 | 3.0 | 6.0 | 0.00 | 0.00 | 0.00 | 49 | 1020.1 |
| 20260507123628 | 41 | 278 | 1.0 | 2.0 | 0.00 | 0.00 | 0.00 | 50 | 1019.9 |
| 20260507123125 | 40 | 265 | 2.0 | 3.0 | 0.00 | 0.00 | 0.00 | 51 | 1020.0 |
| 20260507122620 | 39 | 282 | 3.0 | 3.0 | 0.00 | 0.00 | 0.00 | 53 | 1020.1 |
| 20260507122116 | 37 | 273 | 1.0 | 2.0 | 0.00 | 0.00 | 0.00 | 56 | 1020.0 |
| 20260507121612 | 37 | 287 | 2.0 | 2.0 | 0.00 | 0.00 | 0.00 | 59 | 1020.0 |
| 20260507121108 | 37 | 292 | 1.0 | 2.0 | 0.00 | 0.00 | 0.00 | 59 | 1020.0 |
| 20260507120604 | 37 | 291 | 1.0 | 2.0 | 0.00 | 0.00 | 0.00 | 59 | 1019.9 |
| 20260507115557 | 35 | 304 | 1.0 | 2.0 | 0.00 | 0.00 | 0.00 | 62 | 1019.9 |
| 20260507115053 | 35 | 303 | 1.0 | 1.0 | 0.00 | 0.00 | 0.00 | 61 | 1020.0 |
| 20260507114549 | 35 | 304 | 0.0 | 1.0 | 0.00 | 0.00 | 0.00 | 62 | 1020.0 |
| 20260507114047 | 37 | 304 | 0.0 | 0.0 | 0.00 | 0.00 | 0.00 | 61 | 1020.1 |
| 20260507113543 | 39 | 297 | 1.0 | 1.0 | 0.00 | 0.00 | 0.00 | 54 | 1020.0 |
| 20260507113041 | 38 | 276 | 4.0 | 4.0 | 0.00 | 0.00 | 0.00 | 54 | 1019.9 |
| 20260507112538 | 38 | 292 | 0.0 | 0.0 | 0.00 | 0.00 | 0.00 | 53 | 1020.0 |
| 20260507112035 | 37 | 299 | 1.0 | 1.0 | 0.00 | 0.00 | 0.00 | 54 | 1020.1 |
| 20260507111532 | 38 | 315 | 0.0 | 1.0 | 0.00 | 0.00 | 0.00 | 54 | 1020.1 |
| 20260507111029 | 37 | 315 | 2.0 | 2.0 | 0.00 | 0.00 | 0.00 | 52 | 1020.1 |
| 20260507110525 | 37 | 297 | 1.0 | 1.0 | 0.00 | 0.00 | 0.00 | 57 | 1020.1 |
| 20260507110022 | 37 | 309 | 1.0 | 1.0 | 0.00 | 0.00 | 0.00 | 61 | 1019.9 |
| 20260507105519 | 37 | 272 | 1.0 | 1.0 | 0.00 | 0.00 | 0.00 | 60 | 1020.1 |
| 20260507105015 | 36 | 285 | 1.0 | 1.0 | 0.00 | 0.00 | 0.00 | 61 | 1020.2 |
| 20260507104513 | 36 | 284 | 2.0 | 2.0 | 0.00 | 0.00 | 0.00 | 65 | 1020.1 |
| 20260507104008 | 35 | 278 | 2.0 | 3.0 | 0.00 | 0.00 | 0.00 | 66 | 1020.1 |
| 20260507103505 | 34 | 293 | 1.0 | 1.0 | 0.00 | 0.00 | 0.00 | 68 | 1020.4 |
| 20260507103001 | 35 | 291 | 0.0 | 0.0 | 0.00 | 0.00 | 0.00 | 67 | 1020.2 |
| 20260507102458 | 36 | 294 | 0.0 | 0.0 | 0.00 | 0.00 | 0.00 | 65 | 1020.2 |
| 20260507101954 | 35 | 289 | 0.0 | 1.0 | 0.00 | 0.00 | 0.00 | 64 | 1020.2 |
| 20260507101449 | 35 | 290 | 0.0 | 1.0 | 0.00 | 0.00 | 0.00 | 66 | 1020.2 |
| 20260507100946 | 34 | 288 | 1.0 | 1.0 | 0.00 | 0.00 | 0.00 | 69 | 1020.4 |
| 20260507100444 | 33 | 295 | 1.0 | 1.0 | 0.00 | 0.00 | 0.00 | 72 | 1020.4 |
| 20260507095942 | 33 | 295 | 0.0 | 0.0 | 0.00 | 0.00 | 0.00 | 74 | 1020.4 |
| 20260507095439 | 31 | 293 | 1.0 | 1.0 | 0.00 | 0.00 | 0.00 | 78 | 1020.5 |
| 20260507094936 | 30 | 270 | 1.0 | 1.0 | 0.00 | 0.00 | 0.00 | 81 | 1020.5 |
| 20260507094432 | 29 | 316 | 0.0 | 0.0 | 0.00 | 0.00 | 0.00 | 86 | 1020.5 |
| 20260507093929 | 28 | 318 | 0.0 | 0.0 | 0.00 | 0.00 | 0.00 | 88 | 1020.6 |
| 20260507093427 | 28 | 343 | 0.0 | 0.0 | 0.00 | 0.00 | 0.00 | 93 | 1020.6 |
| 20260507092925 | 27 | 325 | 1.0 | 1.0 | 0.00 | 0.00 | 0.00 | 94 | 1020.5 |
| 20260507092421 | 27 | 334 | 0.0 | 0.0 | 0.00 | 0.00 | 0.00 | 94 | 1020.2 |
| 20260507091918 | 27 | 327 | 1.0 | 1.0 | 0.00 | 0.00 | 0.00 | 94 | 1020.6 |
| 20260507091414 | 27 | 327 | 0.0 | 0.0 | 0.00 | 0.00 | 0.00 | 94 | 1020.8 |
| 20260507090910 | 28 | 327 | 1.0 | 1.0 | 0.00 | 0.00 | 0.00 | 94 | 1020.8 |
| 20260507090407 | 28 | 319 | 1.0 | 2.0 | 0.00 | 0.00 | 0.00 | 94 | 1020.8 |
| 20260507085903 | 27 | 323 | 0.0 | 0.0 | 0.00 | 0.00 | 0.00 | 95 | 1020.8 |
| 20260507085400 | 27 | 324 | 0.0 | 0.0 | 0.00 | 0.00 | 0.00 | 95 | 1020.7 |
| 20260507084858 | 27 | 323 | 1.0 | 1.0 | 0.00 | 0.00 | 0.00 | 95 | 1020.8 |
| 20260507084354 | 28 | 317 | 0.0 | 1.0 | 0.00 | 0.00 | 0.00 | 95 | 1020.8 |
| 20260507083851 | 28 | 317 | 0.0 | 0.0 | 0.00 | 0.00 | 0.00 | 95 | 1021.1 |
| 20260507083347 | 28 | 318 | 0.0 | 0.0 | 0.00 | 0.00 | 0.00 | 95 | 1021.1 |
| 20260507082844 | 28 | 320 | 0.0 | 0.0 | 0.00 | 0.00 | 0.00 | 95 | 1021.1 |
| 20260507082339 | 28 | 319 | 1.0 | 1.0 | 0.00 | 0.00 | 0.00 | 95 | 1021.1 |
| 20260507081837 | 28 | 322 | 0.0 | 0.0 | 0.00 | 0.00 | 0.00 | 94 | 1021.3 |
| 20260507081333 | 28 | 321 | 0.0 | 0.0 | 0.00 | 0.00 | 0.00 | 94 | 1021.3 |
| 20260507080830 | 29 | 321 | 0.0 | 0.0 | 0.00 | 0.00 | 0.00 | 94 | 1021.3 |
| 20260507080326 | 29 | 320 | 0.0 | 0.0 | 0.00 | 0.00 | 0.00 | 94 | 1021.3 |
| 20260507075821 | 29 | 321 | 0.0 | 0.0 | 0.00 | 0.00 | 0.00 | 94 | 1021.6 |
| 20260507075318 | 29 | 321 | 0.0 | 0.0 | 0.00 | 0.00 | 0.00 | 94 | 1021.6 |
| 20260507074815 | 30 | 320 | 0.0 | 0.0 | 0.00 | 0.00 | 0.00 | 94 | 1021.4 |
| 20260507074312 | 29 | 320 | 1.0 | 1.0 | 0.00 | 0.00 | 0.00 | 94 | 1021.4 |
| 20260507073809 | 30 | 322 | 0.0 | 0.0 | 0.00 | 0.00 | 0.00 | 94 | 1021.8 |
| 20260507073306 | 30 | 320 | 1.0 | 1.0 | 0.00 | 0.00 | 0.00 | 94 | 1021.7 |
| 20260507072803 | 30 | 318 | 1.0 | 1.0 | 0.00 | 0.00 | 0.00 | 94 | 1021.7 |
| 20260507072300 | 30 | 319 | 0.0 | 1.0 | 0.00 | 0.00 | 0.00 | 95 | 1021.7 |
| 20260507071758 | 30 | 318 | 1.0 | 1.0 | 0.00 | 0.00 | 0.00 | 95 | 1021.6 |
| 20260507071254 | 30 | 319 | 1.0 | 1.0 | 0.00 | 0.00 | 0.00 | 95 | 1021.7 |
| 20260507070751 | 29 | 316 | 0.0 | 0.0 | 0.00 | 0.00 | 0.00 | 95 | 1021.7 |
| 20260507070248 | 29 | 314 | 2.0 | 2.0 | 0.00 | 0.00 | 0.00 | 95 | 1021.8 |
| 20260507065744 | 29 | 344 | 0.0 | 1.0 | 0.00 | 0.00 | 0.00 | 95 | 1021.8 |
| 20260507065241 | 28 | 344 | 1.0 | 2.0 | 0.00 | 0.00 | 0.00 | 95 | 1022.0 |
| 20260507064739 | 28 | 344 | 0.0 | 1.0 | 0.00 | 0.00 | 0.00 | 95 | 1021.9 |
| 20260507064238 | 28 | 344 | 0.0 | 0.0 | 0.00 | 0.00 | 0.00 | 95 | 1021.9 |
| 20260507063734 | 28 | 344 | 0.0 | 0.0 | 0.00 | 0.00 | 0.00 | 95 | 1022.0 |
| 20260507063231 | 28 | 344 | 0.0 | 0.0 | 0.00 | 0.00 | 0.00 | 95 | 1022.0 |
| 20260507062728 | 28 | 344 | 0.0 | 0.0 | 0.00 | 0.00 | 0.00 | 95 | 1022.2 |
| 20260507062225 | 28 | 344 | 0.0 | 0.0 | 0.00 | 0.00 | 0.00 | 95 | 1021.8 |
| 20260507061723 | 28 | 344 | 0.0 | 0.0 | 0.00 | 0.00 | 0.00 | 95 | 1021.9 |
| 20260507061221 | 28 | 344 | 0.0 | 0.0 | 0.00 | 0.00 | 0.00 | 94 | 1021.9 |
| 20260507060719 | 29 | 344 | 0.0 | 0.0 | 0.00 | 0.00 | 0.00 | 94 | 1021.9 |
| 20260507060215 | 29 | 344 | 0.0 | 0.0 | 0.00 | 0.00 | 0.00 | 95 | 1021.9 |
| 20260507055711 | 29 | 344 | 0.0 | 0.0 | 0.00 | 0.14 | 0.14 | 95 | 1022.0 |
| 20260507055207 | 29 | 344 | 0.0 | 0.0 | 0.00 | 0.14 | 0.14 | 94 | 1021.8 |
| 20260507054703 | 29 | 344 | 0.0 | 0.0 | 0.00 | 0.14 | 0.14 | 95 | 1021.8 |
| 20260507054200 | 29 | 344 | 0.0 | 0.0 | 0.00 | 0.14 | 0.14 | 95 | 1021.6 |
| 20260507053658 | 29 | 344 | 0.0 | 0.0 | 0.00 | 0.14 | 0.14 | 95 | 1021.8 |
| 20260507053156 | 28 | 344 | 0.0 | 0.0 | 0.00 | 0.14 | 0.14 | 95 | 1021.8 |
| 20260507052654 | 28 | 344 | 0.0 | 0.0 | 0.00 | 0.14 | 0.14 | 95 | 1021.7 |
| 20260507052150 | 29 | 344 | 0.0 | 0.0 | 0.00 | 0.14 | 0.14 | 94 | 1021.6 |
| 20260507051648 | 29 | 344 | 0.0 | 0.0 | 0.00 | 0.14 | 0.14 | 94 | 1021.7 |
| 20260507051144 | 29 | 344 | 0.0 | 0.0 | 0.00 | 0.14 | 0.14 | 94 | 1021.3 |
| 20260507050641 | 29 | 344 | 0.0 | 0.0 | 0.00 | 0.14 | 0.14 | 94 | 1021.4 |
| 20260507050138 | 29 | 344 | 0.0 | 0.0 | 0.00 | 0.14 | 0.14 | 94 | 1021.4 |
| 20260507045635 | 29 | 344 | 0.0 | 0.0 | 0.00 | 0.14 | 0.14 | 94 | 1021.3 |
| 20260507045131 | 30 | 344 | 0.0 | 0.0 | 0.00 | 0.14 | 0.14 | 94 | 1021.4 |
| 20260507044629 | 29 | 344 | 0.0 | 0.0 | 0.00 | 0.14 | 0.14 | 95 | 1021.6 |
| 20260507044125 | 29 | 344 | 0.0 | 0.0 | 0.00 | 0.14 | 0.14 | 94 | 1021.7 |
| 20260507043621 | 29 | 344 | 0.0 | 0.0 | 0.00 | 0.14 | 0.14 | 94 | 1021.6 |
| 20260507043118 | 29 | 344 | 0.0 | 0.0 | 0.00 | 0.14 | 0.14 | 93 | 1021.7 |
| 20260507042614 | 29 | 344 | 0.0 | 0.0 | 0.00 | 0.14 | 0.14 | 93 | 1021.6 |
| 20260507042110 | 29 | 344 | 0.0 | 0.0 | 0.00 | 0.14 | 0.14 | 93 | 1021.6 |
| 20260507041607 | 30 | 344 | 0.0 | 0.0 | 0.00 | 0.14 | 0.14 | 93 | 1021.6 |
| 20260507041104 | 30 | 344 | 0.0 | 0.0 | 0.00 | 0.14 | 0.14 | 93 | 1021.4 |
| 20260507040601 | 30 | 344 | 0.0 | 0.0 | 0.00 | 0.14 | 0.14 | 93 | 1021.6 |
| 20260507040057 | 30 | 344 | 0.0 | 0.0 | 0.00 | 0.14 | 0.14 | 93 | 1021.6 |
| 20260507035553 | 30 | 344 | 0.0 | 0.0 | 0.00 | 0.14 | 0.14 | 92 | 1021.4 |
| 20260507035049 | 30 | 344 | 0.0 | 0.0 | 0.00 | 0.14 | 0.14 | 92 | 1021.4 |
| 20260507034546 | 30 | 344 | 0.0 | 0.0 | 0.00 | 0.14 | 0.14 | 92 | 1021.6 |
| 20260507034044 | 30 | 344 | 0.0 | 0.0 | 0.00 | 0.14 | 0.14 | 93 | 1021.4 |
| 20260507033542 | 30 | 344 | 0.0 | 1.0 | 0.00 | 0.14 | 0.14 | 93 | 1021.4 |
| 20260507033039 | 30 | 344 | 1.0 | 1.0 | 0.00 | 0.14 | 0.14 | 93 | 1021.4 |
| 20260507032536 | 30 | 344 | 0.0 | 0.0 | 0.00 | 0.14 | 0.14 | 93 | 1021.4 |
| 20260507032032 | 30 | 344 | 0.0 | 0.0 | 0.00 | 0.14 | 0.14 | 92 | 1021.2 |
| 20260507031528 | 31 | 344 | 0.0 | 0.0 | 0.00 | 0.14 | 0.14 | 92 | 1021.6 |
| 20260507031026 | 31 | 344 | 0.0 | 1.0 | 0.00 | 0.14 | 0.14 | 93 | 1021.2 |
| 20260507030522 | 31 | 344 | 0.0 | 0.0 | 0.00 | 0.14 | 0.14 | 93 | 1021.3 |
| 20260507030020 | 31 | 344 | 0.0 | 1.0 | 0.00 | 0.14 | 0.14 | 93 | 1021.3 |
| 20260507025517 | 31 | 344 | 0.0 | 0.0 | 0.00 | 0.14 | 0.14 | 93 | 1021.0 |
| 20260507025014 | 31 | 344 | 0.0 | 0.0 | 0.00 | 0.14 | 0.14 | 93 | 1021.1 |
| 20260507024512 | 31 | 344 | 0.0 | 0.0 | 0.00 | 0.14 | 0.14 | 92 | 1021.2 |
| 20260507024008 | 32 | 344 | 0.0 | 0.0 | 0.00 | 0.14 | 0.14 | 92 | 1021.1 |
| 20260507023504 | 32 | 344 | 0.0 | 0.0 | 0.00 | 0.14 | 0.14 | 92 | 1021.0 |
| 20260507023002 | 32 | 344 | 0.0 | 0.0 | 0.00 | 0.14 | 0.14 | 91 | 1021.1 |
| 20260507022459 | 32 | 24 | 0.0 | 0.0 | 0.00 | 0.14 | 0.14 | 91 | 1021.0 |
| 20260507021954 | 32 | 24 | 0.0 | 0.0 | 0.00 | 0.14 | 0.14 | 90 | 1020.8 |
| 20260507021450 | 33 | 24 | 0.0 | 0.0 | 0.00 | 0.14 | 0.14 | 90 | 1020.7 |
| 20260507020947 | 33 | 24 | 0.0 | 0.0 | 0.00 | 0.14 | 0.14 | 89 | 1020.7 |
| 20260507020444 | 34 | 24 | 0.0 | 0.0 | 0.00 | 0.14 | 0.14 | 88 | 1020.7 |
| 20260507015941 | 34 | 24 | 0.0 | 0.0 | 0.00 | 0.14 | 0.14 | 88 | 1021.0 |
| 20260507015439 | 34 | 25 | 0.0 | 0.0 | 0.00 | 0.14 | 0.14 | 87 | 1020.7 |
| 20260507014936 | 34 | 25 | 0.0 | 0.0 | 0.00 | 0.14 | 0.14 | 86 | 1020.6 |
| 20260507014433 | 35 | 25 | 0.0 | 0.0 | 0.00 | 0.14 | 0.14 | 85 | 1020.7 |
| 20260507013929 | 35 | 26 | 0.0 | 0.0 | 0.00 | 0.14 | 0.14 | 83 | 1020.8 |
| 20260507013426 | 35 | 26 | 0.0 | 0.0 | 0.00 | 0.14 | 0.14 | 83 | 1020.8 |
| 20260507012923 | 35 | 26 | 0.0 | 0.0 | 0.00 | 0.14 | 0.14 | 82 | 1020.7 |
| 20260507012420 | 36 | 26 | 0.0 | 0.0 | 0.00 | 0.14 | 0.14 | 80 | 1021.0 |
| 20260507011917 | 36 | 26 | 0.0 | 0.0 | 0.00 | 0.14 | 0.14 | 79 | 1020.8 |
| 20260507011414 | 37 | 28 | 0.0 | 0.0 | 0.00 | 0.14 | 0.14 | 77 | 1020.8 |
| 20260507010913 | 37 | 356 | 1.0 | 1.0 | 0.00 | 0.14 | 0.14 | 75 | 1020.6 |
| 20260507010409 | 37 | 350 | 1.0 | 1.0 | 0.00 | 0.14 | 0.14 | 74 | 1020.6 |
| 20260507005907 | 38 | 346 | 0.0 | 1.0 | 0.00 | 0.14 | 0.14 | 72 | 1020.7 |
| 20260507005403 | 39 | 20 | 1.0 | 1.0 | 0.00 | 0.14 | 0.14 | 71 | 1020.6 |
| 20260507004900 | 40 | 78 | 0.0 | 1.0 | 0.00 | 0.14 | 0.14 | 67 | 1020.6 |
| 20260507004357 | 40 | 328 | 0.0 | 1.0 | 0.00 | 0.14 | 0.14 | 69 | 1020.6 |